Time;durP1;ratioP1;P1;durP2;ratioP2;P2;SDS_P1;SDS_P2;PMS_P1;PMS_P2;Temp;Humidity;BMP_temperature;BMP_pressure;BME280_temperature;BME280_humidity;BME280_pressure;Samples;Min_cycle;Max_cycle;Signal;HPM_P1;HPM_P2
2022/01/18 00:00:34;;;;;;;;;;;19.50;53.10;;;;;;5053580;28;1082;-72
2022/01/18 00:02:59;;;;;;;;;;;19.50;53.10;;;;;;5054233;28;1389;-72
2022/01/18 00:05:25;;;;;;;;;;;19.50;53.10;;;;;;5054498;28;1902;-72
2022/01/18 00:07:50;;;;;;;;;;;19.50;53.10;;;;;;5054209;28;1204;-72
2022/01/18 00:10:16;;;;;;;;;;;19.50;53.20;;;;;;5054349;28;1157;-72
2022/01/18 00:17:54;;;;;;;;;;;19.40;53.20;;;;;;5054216;28;1327;-72
2022/01/18 00:20:34;;;;;;;;;;;19.40;53.30;;;;;;5053240;28;1416;-72
2022/01/18 00:23:00;;;;;;;;;;;19.40;53.30;;;;;;5054234;28;1023;-72
2022/01/18 00:25:25;;;;;;;;;;;19.40;53.30;;;;;;5054114;28;1894;-72
2022/01/18 00:27:51;;;;;;;;;;;19.40;53.30;;;;;;5053638;28;1215;-72
2022/01/18 00:30:53;;;;;;;;;;;19.40;53.40;;;;;;5053946;28;1101;-72
2022/01/18 00:33:23;;;;;;;;;;;19.40;53.40;;;;;;5053897;28;1088;-72
2022/01/18 00:35:57;;;;;;;;;;;19.40;53.40;;;;;;5054018;28;1432;-72
2022/01/18 00:38:56;;;;;;;;;;;19.40;53.50;;;;;;5053321;28;1345;-71
2022/01/18 00:41:15;;;;;;;;;;;19.40;53.50;;;;;;5051655;28;1073;-71
2022/01/18 00:43:40;;;;;;;;;;;19.30;53.50;;;;;;5053691;28;1330;-71
2022/01/18 00:46:05;;;;;;;;;;;19.40;53.60;;;;;;5053604;28;1886;-71
2022/01/18 00:48:33;;;;;;;;;;;19.40;53.60;;;;;;5052203;28;1220;-71
2022/01/18 00:50:59;;;;;;;;;;;19.30;53.50;;;;;;5053380;28;1158;-71
2022/01/18 00:53:26;;;;;;;;;;;19.40;53.60;;;;;;5053452;28;1039;-71
2022/01/18 00:56:05;;;;;;;;;;;19.30;53.60;;;;;;5052335;28;1074;-71
2022/01/18 00:58:31;;;;;;;;;;;19.30;53.60;;;;;;5052332;28;1405;-71
2022/01/18 01:00:56;;;;;;;;;;;19.40;53.60;;;;;;5053402;28;1175;-70
2022/01/18 01:03:22;;;;;;;;;;;19.30;53.60;;;;;;5052098;28;1128;-71
2022/01/18 01:05:47;;;;;;;;;;;19.40;53.60;;;;;;5053331;28;1963;-71
2022/01/18 01:08:13;;;;;;;;;;;19.30;53.60;;;;;;5053042;28;1220;-71
2022/01/18 01:10:38;;;;;;;;;;;19.40;53.60;;;;;;5053189;28;1090;-70
2022/01/18 01:13:04;;;;;;;;;;;19.40;53.70;;;;;;5038608;28;1050;-71
2022/01/18 01:15:32;;;;;;;;;;;19.40;53.60;;;;;;5052164;28;1090;-71
2022/01/18 01:34:41;;;;;;;;;;;19.40;53.60;;;;;;5053093;28;996;-70
2022/01/18 01:42:59;;;;;;;;;;;19.40;53.70;;;;;;5050295;28;1352;-71
2022/01/18 01:45:26;;;;;;;;;;;19.40;53.70;;;;;;5041081;28;1977;-71
2022/01/18 01:47:53;;;;;;;;;;;19.40;53.70;;;;;;5052424;28;1232;-70
2022/01/18 01:50:20;;;;;;;;;;;19.40;53.70;;;;;;5051506;28;1405;-71
2022/01/18 01:52:49;;;;;;;;;;;19.40;53.70;;;;;;5052946;28;1410;-71
2022/01/18 01:55:15;;;;;;;;;;;19.40;53.70;;;;;;5051582;28;1701;-71
2022/01/18 01:57:40;;;;;;;;;;;19.40;53.70;;;;;;5052141;28;1359;-71
2022/01/18 02:00:07;;;;;;;;;;;19.40;53.70;;;;;;5052650;28;1349;-71
2022/01/18 02:02:32;;;;;;;;;;;19.40;53.80;;;;;;5052452;28;1201;-71
2022/01/18 02:04:57;;;;;;;;;;;19.40;53.80;;;;;;5052735;28;1970;-71
2022/01/18 02:07:23;;;;;;;;;;;19.30;53.70;;;;;;5052179;28;1267;-71
2022/01/18 02:09:48;;;;;;;;;;;19.30;53.80;;;;;;5054580;28;1409;-71
2022/01/18 02:12:16;;;;;;;;;;;19.40;53.80;;;;;;5055102;28;1156;-71
2022/01/18 02:14:46;;;;;;;;;;;19.30;53.80;;;;;;5056689;28;1320;-71
2022/01/18 02:22:39;;;;;;;;;;;19.30;53.80;;;;;;5056161;28;1315;-71
2022/01/18 02:25:05;;;;;;;;;;;19.30;53.90;;;;;;5056485;28;1902;-71
2022/01/18 02:27:30;;;;;;;;;;;19.30;53.90;;;;;;5055959;28;1263;-71
2022/01/18 02:29:56;;;;;;;;;;;19.30;53.80;;;;;;5056345;28;1303;-71
2022/01/18 02:32:21;;;;;;;;;;;19.30;53.80;;;;;;5056074;28;1189;-71
2022/01/18 02:34:47;;;;;;;;;;;19.30;53.90;;;;;;5056242;28;1047;-71
2022/01/18 02:37:14;;;;;;;;;;;19.30;53.80;;;;;;5055703;28;1343;-71
2022/01/18 02:39:40;;;;;;;;;;;19.30;53.80;;;;;;5056086;28;1276;-71
2022/01/18 02:42:06;;;;;;;;;;;19.30;53.90;;;;;;5055949;28;1365;-71
2022/01/18 02:44:32;;;;;;;;;;;19.30;53.90;;;;;;5056041;28;1910;-71
2022/01/18 02:46:57;;;;;;;;;;;19.30;53.80;;;;;;5055972;28;1331;-71
2022/01/18 02:49:23;;;;;;;;;;;19.30;53.90;;;;;;5055723;28;1208;-71
2022/01/18 02:51:48;;;;;;;;;;;19.30;53.90;;;;;;5054341;28;1094;-71
2022/01/18 02:54:14;;;;;;;;;;;19.30;53.90;;;;;;5055899;28;1111;-71
2022/01/18 02:56:46;;;;;;;;;;;19.40;54.00;;;;;;5054548;28;1122;-71
2022/01/18 02:59:18;;;;;;;;;;;19.40;53.90;;;;;;5055408;28;1336;-70
2022/01/18 03:04:28;;;;;;;;;;;19.40;53.90;;;;;;5054732;28;1969;-71
2022/01/18 03:06:53;;;;;;;;;;;19.40;53.90;;;;;;5055695;28;1358;-71
2022/01/18 03:09:19;;;;;;;;;;;19.40;53.90;;;;;;5055095;28;1415;-71
2022/01/18 03:11:44;;;;;;;;;;;19.30;53.90;;;;;;5054348;28;1399;-71
2022/01/18 03:14:10;;;;;;;;;;;19.30;53.90;;;;;;5055391;28;1115;-71
2022/01/18 03:16:35;;;;;;;;;;;19.30;53.90;;;;;;5055421;28;1125;-71
2022/01/18 03:19:00;;;;;;;;;;;19.30;54.00;;;;;;5054851;28;1381;-71
2022/01/18 03:21:26;;;;;;;;;;;19.30;54.00;;;;;;5054402;28;1123;-71
2022/01/18 03:23:59;;;;;;;;;;;19.30;54.00;;;;;;5053883;28;1173;-71
2022/01/18 03:26:32;;;;;;;;;;;19.30;54.00;;;;;;5055435;28;1058;-71
2022/01/18 03:28:57;;;;;;;;;;;19.30;54.00;;;;;;5053685;28;1303;-71
2022/01/18 03:31:22;;;;;;;;;;;19.30;54.00;;;;;;5053746;28;1306;-71
2022/01/18 03:33:48;;;;;;;;;;;19.30;54.00;;;;;;5055023;28;1035;-71
2022/01/18 03:36:13;;;;;;;;;;;19.30;54.10;;;;;;5055422;28;1269;-71
2022/01/18 03:38:39;;;;;;;;;;;19.30;54.10;;;;;;5054491;28;1309;-71
2022/01/18 03:41:04;;;;;;;;;;;19.30;54.10;;;;;;5055051;28;1145;-71
2022/01/18 03:43:30;;;;;;;;;;;19.30;54.10;;;;;;5054853;28;1434;-71
2022/01/18 03:46:00;;;;;;;;;;;19.30;54.10;;;;;;5054706;28;1897;-71
2022/01/18 03:48:32;;;;;;;;;;;19.30;54.70;;;;;;5054520;28;1474;-71
2022/01/18 03:50:58;;;;;;;;;;;19.30;54.20;;;;;;5054890;28;1408;-71
2022/01/18 03:53:23;;;;;;;;;;;19.20;54.20;;;;;;5054087;28;1127;-71
2022/01/18 03:55:49;;;;;;;;;;;19.30;54.20;;;;;;5055003;28;1134;-71
2022/01/18 03:58:14;;;;;;;;;;;19.20;54.20;;;;;;5053303;28;1279;-71
2022/01/18 04:00:40;;;;;;;;;;;19.30;54.30;;;;;;5054542;28;1393;-71
2022/01/18 04:03:05;;;;;;;;;;;19.30;54.30;;;;;;5053203;28;1300;-71
2022/01/18 04:05:30;;;;;;;;;;;19.20;54.20;;;;;;5054552;28;1957;-71
2022/01/18 04:07:56;;;;;;;;;;;19.20;54.20;;;;;;5054186;28;1218;-71
2022/01/18 04:10:21;;;;;;;;;;;19.30;54.30;;;;;;5053335;28;1221;-71
2022/01/18 04:12:47;;;;;;;;;;;19.20;54.20;;;;;;5053607;28;1283;-71
2022/01/18 04:15:13;;;;;;;;;;;19.30;54.30;;;;;;5052882;28;1416;-71
2022/01/18 04:26:55;;;;;;;;;;;19.20;54.30;;;;;;5053971;28;1910;-71
2022/01/18 04:28:34;;;;;;;;;;;19.20;54.30;;;;;;5046318;28;1289;-71
2022/01/18 04:30:59;;;;;;;;;;;19.20;54.30;;;;;;5054034;28;1177;-71
2022/01/18 04:33:25;;;;;;;;;;;19.20;54.30;;;;;;5053867;28;1059;-71
2022/01/18 04:35:50;;;;;;;;;;;19.20;54.30;;;;;;5053747;28;1438;-70
2022/01/18 04:38:16;;;;;;;;;;;19.20;54.30;;;;;;5053526;28;1332;-71
2022/01/18 04:40:44;;;;;;;;;;;19.20;54.40;;;;;;5053886;28;1373;-71
2022/01/18 04:50:54;;;;;;;;;;;19.20;54.40;;;;;;5053916;28;1047;-71
2022/01/18 04:53:20;;;;;;;;;;;19.20;54.40;;;;;;5053508;28;1325;-70
2022/01/18 04:55:45;;;;;;;;;;;19.20;54.40;;;;;;5054226;28;1266;-71
2022/01/18 04:58:11;;;;;;;;;;;19.20;54.40;;;;;;5051937;28;1204;-71
2022/01/18 05:00:36;;;;;;;;;;;19.20;54.40;;;;;;5052317;28;1070;-70
2022/01/18 05:03:02;;;;;;;;;;;19.20;54.40;;;;;;5053026;28;1061;-70
2022/01/18 05:05:30;;;;;;;;;;;19.20;54.50;;;;;;5052180;28;1910;-71
2022/01/18 05:07:59;;;;;;;;;;;19.20;54.50;;;;;;5052977;28;1267;-70
2022/01/18 05:10:27;;;;;;;;;;;19.20;54.50;;;;;;5053318;28;1142;-71
2022/01/18 05:12:54;;;;;;;;;;;19.20;54.60;;;;;;5052241;28;1391;-71
2022/01/18 05:15:39;;;;;;;;;;;19.30;54.60;;;;;;5053235;28;1075;-71
2022/01/18 05:23:20;;;;;;;;;;;19.40;54.30;;;;;;5053194;28;1071;-71
2022/01/18 05:25:46;;;;;;;;;;;19.40;54.20;;;;;;5051761;28;1898;-71
2022/01/18 05:28:12;;;;;;;;;;;19.50;54.10;;;;;;5051369;28;1276;-70
2022/01/18 05:30:37;;;;;;;;;;;19.60;54.00;;;;;;5043426;28;1927;-69
2022/01/18 05:33:02;;;;;;;;;;;19.60;53.80;;;;;;5045845;28;1289;-70
2022/01/18 05:35:28;;;;;;;;;;;19.70;53.60;;;;;;5026773;28;1191;-69
2022/01/18 05:37:53;;;;;;;;;;;19.70;53.50;;;;;;5052565;28;1344;-69
2022/01/18 05:40:19;;;;;;;;;;;19.80;53.40;;;;;;5052611;28;1341;-71
2022/01/18 05:42:44;;;;;;;;;;;19.80;53.30;;;;;;5052731;28;1063;-70
2022/01/18 05:45:10;;;;;;;;;;;19.90;53.30;;;;;;5051123;28;1909;-70
2022/01/18 05:47:36;;;;;;;;;;;19.90;53.20;;;;;;5051270;28;1388;-71
2022/01/18 05:50:02;;;;;;;;;;;19.90;53.10;;;;;;5048251;28;2204;-69
2022/01/18 05:52:27;;;;;;;;;;;19.90;53.00;;;;;;5050026;28;1260;-70
2022/01/18 05:54:53;;;;;;;;;;;19.90;53.00;;;;;;5052307;28;1317;-69
2022/01/18 05:57:18;;;;;;;;;;;19.90;52.90;;;;;;5051995;28;1208;-70
2022/01/18 05:59:46;;;;;;;;;;;20.00;52.90;;;;;;5052479;28;1432;-70
2022/01/18 06:07:47;;;;;;;;;;;20.00;52.80;;;;;;5051150;28;1376;-69
2022/01/18 06:10:13;;;;;;;;;;;20.00;52.80;;;;;;5052546;28;1147;-69
2022/01/18 06:12:40;;;;;;;;;;;20.00;52.70;;;;;;5052344;28;1495;-69
2022/01/18 06:15:06;;;;;;;;;;;20.00;52.70;;;;;;5051360;28;1266;-69
2022/01/18 06:17:31;;;;;;;;;;;20.00;52.70;;;;;;5051712;28;1313;-68
2022/01/18 06:19:57;;;;;;;;;;;20.00;52.70;;;;;;5052641;28;796;-68
2022/01/18 06:22:22;;;;;;;;;;;20.00;52.70;;;;;;5048475;28;1150;-69
2022/01/18 06:24:47;;;;;;;;;;;20.00;52.60;;;;;;5042646;28;1901;-68
2022/01/18 06:27:13;;;;;;;;;;;20.00;52.60;;;;;;5051266;28;1350;-67
2022/01/18 06:29:38;;;;;;;;;;;20.00;52.60;;;;;;5041886;28;1238;-69
2022/01/18 06:32:04;;;;;;;;;;;20.00;52.60;;;;;;5048729;28;1066;-68
2022/01/18 06:34:30;;;;;;;;;;;20.00;52.60;;;;;;5051045;28;1295;-68
2022/01/18 06:36:55;;;;;;;;;;;20.00;52.60;;;;;;5050914;28;1277;-68
2022/01/18 06:39:21;;;;;;;;;;;20.00;52.70;;;;;;5051575;28;1400;-69
2022/01/18 06:41:46;;;;;;;;;;;20.00;52.70;;;;;;5050673;28;1130;-68
2022/01/18 06:44:12;;;;;;;;;;;20.10;52.70;;;;;;5052533;28;1914;-68
2022/01/18 06:46:37;;;;;;;;;;;20.10;52.70;;;;;;5052223;28;1119;-67
2022/01/18 06:49:03;;;;;;;;;;;20.10;52.70;;;;;;5050797;28;1395;-69
2022/01/18 06:51:28;;;;;;;;;;;20.00;52.70;;;;;;5043855;28;2187;-69
2022/01/18 06:53:53;;;;;;;;;;;20.00;52.70;;;;;;5044581;28;2187;-68
2022/01/18 06:56:20;;;;;;;;;;;20.00;52.70;;;;;;5053251;28;1326;-69
2022/01/18 06:58:45;;;;;;;;;;;20.00;52.80;;;;;;5053814;28;1324;-68
2022/01/18 07:01:11;;;;;;;;;;;20.00;52.80;;;;;;5054480;28;1226;-68
2022/01/18 07:03:37;;;;;;;;;;;20.00;52.80;;;;;;5045778;28;1074;-68
2022/01/18 07:06:02;;;;;;;;;;;20.00;52.80;;;;;;5050489;28;1910;-68
2022/01/18 07:08:28;;;;;;;;;;;20.00;52.80;;;;;;5054875;28;1380;-68
2022/01/18 07:10:53;;;;;;;;;;;20.00;52.80;;;;;;5053449;28;1334;-69
2022/01/18 07:13:18;;;;;;;;;;;20.00;52.90;;;;;;5055701;28;1381;-69
2022/01/18 07:15:44;;;;;;;;;;;20.00;52.80;;;;;;5053781;28;1248;-70
2022/01/18 07:18:10;;;;;;;;;;;20.00;52.80;;;;;;5055023;28;1313;-70
2022/01/18 07:20:36;;;;;;;;;;;20.00;52.90;;;;;;5055229;28;1059;-70
2022/01/18 07:23:02;;;;;;;;;;;20.00;50.20;;;;;;5054139;28;1102;-70
2022/01/18 07:25:27;;;;;;;;;;;19.90;49.10;;;;;;5055363;28;1977;-69
2022/01/18 07:27:53;;;;;;;;;;;19.90;49.40;;;;;;5054972;28;1318;-70
2022/01/18 07:30:18;;;;;;;;;;;19.90;49.60;;;;;;5054231;28;1420;-70
2022/01/18 07:32:43;;;;;;;;;;;19.90;49.70;;;;;;5054995;28;1134;-70
2022/01/18 07:35:11;;;;;;;;;;;19.90;50.40;;;;;;5054910;28;1081;-70
2022/01/18 07:37:37;;;;;;;;;;;19.90;50.10;;;;;;5053533;28;1326;-69
2022/01/18 07:40:02;;;;;;;;;;;19.90;50.50;;;;;;5053667;28;1079;-70
2022/01/18 07:42:28;;;;;;;;;;;20.00;50.80;;;;;;5053836;28;1090;-69
2022/01/18 07:44:53;;;;;;;;;;;20.00;50.80;;;;;;5054711;28;1904;-70
2022/01/18 07:47:19;;;;;;;;;;;20.20;50.80;;;;;;5054949;28;1380;-71
2022/01/18 07:49:45;;;;;;;;;;;20.30;50.70;;;;;;5054484;28;1364;-69
2022/01/18 07:52:10;;;;;;;;;;;20.40;50.60;;;;;;5033634;28;1174;-69
2022/01/18 07:54:35;;;;;;;;;;;20.50;50.50;;;;;;5047271;28;1468;-69
2022/01/18 07:57:01;;;;;;;;;;;20.70;50.40;;;;;;5054626;28;1065;-69
2022/01/18 07:59:27;;;;;;;;;;;20.80;50.20;;;;;;5054256;28;1194;-69
2022/01/18 08:01:55;;;;;;;;;;;20.90;50.00;;;;;;5054642;28;1213;-69
2022/01/18 08:04:21;;;;;;;;;;;21.00;49.90;;;;;;5054164;28;1999;-69
2022/01/18 08:06:46;;;;;;;;;;;21.10;49.60;;;;;;5054163;28;1079;-69
2022/01/18 08:09:12;;;;;;;;;;;21.20;49.50;;;;;;5052703;28;1333;-69
2022/01/18 08:11:37;;;;;;;;;;;21.30;49.40;;;;;;5054444;28;1213;-69
2022/01/18 08:14:03;;;;;;;;;;;21.40;49.20;;;;;;5054294;28;1157;-69
2022/01/18 08:18:57;;;;;;;;;;;21.50;49.00;;;;;;5052706;28;1252;-70
2022/01/18 08:21:23;;;;;;;;;;;21.50;49.00;;;;;;5053012;28;1407;-70
2022/01/18 08:23:48;;;;;;;;;;;21.60;49.00;;;;;;5052638;28;1357;-69
2022/01/18 08:26:14;;;;;;;;;;;21.60;48.90;;;;;;5048690;28;1890;-70
2022/01/18 08:28:39;;;;;;;;;;;21.60;48.90;;;;;;5045917;28;1623;-69
2022/01/18 08:31:05;;;;;;;;;;;21.60;49.00;;;;;;5049268;28;1855;-69
2022/01/18 08:33:33;;;;;;;;;;;21.60;49.00;;;;;;5042630;28;1288;-69
2022/01/18 08:36:03;;;;;;;;;;;21.60;49.20;;;;;;5044111;28;2116;-70
2022/01/18 08:38:29;;;;;;;;;;;21.60;49.60;;;;;;5041075;28;2282;-69
2022/01/18 08:40:54;;;;;;;;;;;21.60;49.80;;;;;;5045792;28;1383;-70
2022/01/18 08:43:20;;;;;;;;;;;21.60;49.80;;;;;;5043135;28;1623;-70
2022/01/18 08:45:46;;;;;;;;;;;21.60;50.10;;;;;;5047702;28;1969;-70
2022/01/18 08:48:11;;;;;;;;;;;21.60;50.80;;;;;;5044059;28;1296;-70
2022/01/18 08:50:36;;;;;;;;;;;21.70;50.70;;;;;;5043794;28;1493;-70
2022/01/18 08:53:02;;;;;;;;;;;21.60;50.70;;;;;;5050106;28;1368;-71
2022/01/18 08:55:27;;;;;;;;;;;21.60;50.70;;;;;;5052896;28;1717;-69
2022/01/18 08:57:53;;;;;;;;;;;21.60;50.90;;;;;;5052276;28;1717;-70
2022/01/18 09:00:19;;;;;;;;;;;21.60;51.60;;;;;;5053026;28;1707;-70
2022/01/18 09:02:44;;;;;;;;;;;21.60;51.10;;;;;;5053449;28;1344;-70
2022/01/18 09:05:09;;;;;;;;;;;21.60;51.20;;;;;;5053302;28;2006;-70
2022/01/18 09:07:37;;;;;;;;;;;21.60;51.20;;;;;;5053279;28;1650;-70
2022/01/18 09:10:06;;;;;;;;;;;21.60;51.40;;;;;;5053245;28;1383;-70
2022/01/18 09:12:32;;;;;;;;;;;21.50;51.40;;;;;;5053288;28;1615;-70
2022/01/18 09:15:00;;;;;;;;;;;21.50;51.60;;;;;;5053090;28;1366;-70
2022/01/18 09:17:27;;;;;;;;;;;21.50;51.80;;;;;;5052857;28;1362;-70
2022/01/18 09:19:53;;;;;;;;;;;21.50;51.90;;;;;;5052444;28;1450;-70
2022/01/18 09:22:18;;;;;;;;;;;21.50;52.10;;;;;;5052675;28;1578;-69
2022/01/18 09:24:44;;;;;;;;;;;21.50;52.20;;;;;;5052879;28;1950;-70
2022/01/18 09:27:09;;;;;;;;;;;21.40;52.50;;;;;;5052753;28;1370;-70
2022/01/18 09:29:35;;;;;;;;;;;21.40;52.50;;;;;;5053046;28;1559;-69
2022/01/18 09:32:00;;;;;;;;;;;21.40;52.80;;;;;;5052856;28;1581;-69
2022/01/18 09:34:26;;;;;;;;;;;21.40;53.20;;;;;;5053124;28;1641;-70
2022/01/18 09:36:51;;;;;;;;;;;21.40;53.10;;;;;;5052887;28;1745;-69
2022/01/18 09:39:16;;;;;;;;;;;21.40;53.20;;;;;;5050990;28;1692;-68
2022/01/18 09:41:46;;;;;;;;;;;21.40;53.20;;;;;;5052920;28;1547;-68
2022/01/18 09:44:11;;;;;;;;;;;21.40;53.30;;;;;;5052606;28;1965;-68
2022/01/18 09:46:37;;;;;;;;;;;21.40;53.30;;;;;;5052677;28;1441;-68
2022/01/18 09:49:05;;;;;;;;;;;21.40;53.30;;;;;;5052478;28;1459;-68
2022/01/18 09:51:30;;;;;;;;;;;21.40;53.40;;;;;;5052760;28;1640;-69
2022/01/18 09:53:55;;;;;;;;;;;21.30;53.40;;;;;;5087257;22;2077;-68
2022/01/18 09:56:22;;;;;;;;;;;21.30;53.50;;;;;;5062382;28;1126;-68
2022/01/18 09:58:48;;;;;;;;;;;21.30;53.40;;;;;;5072452;28;1358;-68
2022/01/18 10:01:13;;;;;;;;;;;21.30;53.50;;;;;;5072126;28;1847;-68
2022/01/18 10:03:39;;;;;;;;;;;21.30;53.50;;;;;;5072739;28;1688;-68
2022/01/18 10:06:05;;;;;;;;;;;21.30;53.60;;;;;;5072838;28;1909;-69
2022/01/18 10:08:30;;;;;;;;;;;21.30;53.70;;;;;;5071406;28;1389;-68
2022/01/18 10:10:57;;;;;;;;;;;21.30;53.70;;;;;;5070864;28;1664;-68
2022/01/18 10:13:26;;;;;;;;;;;21.30;53.80;;;;;;5072378;28;1673;-70
2022/01/18 10:15:58;;;;;;;;;;;21.30;53.80;;;;;;5071440;28;1735;-70
2022/01/18 10:18:30;;;;;;;;;;;21.20;53.80;;;;;;5072306;28;1047;-68
2022/01/18 10:20:57;;;;;;;;;;;21.20;53.80;;;;;;5071530;28;1380;-68
2022/01/18 10:23:23;;;;;;;;;;;21.20;54.40;;;;;;5072113;28;1630;-68
2022/01/18 10:25:48;;;;;;;;;;;21.20;53.80;;;;;;5071081;28;1886;-68
2022/01/18 10:28:33;;;;;;;;;;;21.20;53.90;;;;;;5051503;28;1372;-67
2022/01/18 10:31:03;;;;;;;;;;;21.20;53.90;;;;;;5063109;28;1371;-68
2022/01/18 10:33:35;;;;;;;;;;;21.20;54.00;;;;;;5075369;28;1847;-68
2022/01/18 10:36:01;;;;;;;;;;;21.10;54.00;;;;;;5065772;28;1099;-69
2022/01/18 10:38:27;;;;;;;;;;;21.10;54.10;;;;;;5072473;28;1013;-67
2022/01/18 10:40:52;;;;;;;;;;;21.10;54.10;;;;;;5066815;28;1560;-70
2022/01/18 10:43:27;;;;;;;;;;;21.10;54.20;;;;;;5074718;28;1331;-67
2022/01/18 10:46:09;;;;;;;;;;;21.10;54.20;;;;;;5073446;28;1902;-68
2022/01/18 10:48:43;;;;;;;;;;;21.10;54.20;;;;;;5064006;28;1662;-67
2022/01/18 10:51:24;;;;;;;;;;;21.10;54.30;;;;;;5074549;28;1650;-70
2022/01/18 10:54:00;;;;;;;;;;;21.10;54.30;;;;;;5075791;28;1381;-69
2022/01/18 10:56:26;;;;;;;;;;;21.10;54.40;;;;;;5075017;28;1389;-68
2022/01/18 10:58:52;;;;;;;;;;;21.00;54.50;;;;;;5074300;28;1502;-70
2022/01/18 11:01:19;;;;;;;;;;;21.00;54.50;;;;;;5075449;28;1367;-69
2022/01/18 11:04:03;;;;;;;;;;;21.00;54.60;;;;;;5074384;28;1709;-69
2022/01/18 11:06:29;;;;;;;;;;;21.00;54.70;;;;;;5075682;28;1905;-69
2022/01/18 11:08:54;;;;;;;;;;;21.00;54.90;;;;;;5074304;28;1613;-68
2022/01/18 11:11:25;;;;;;;;;;;20.90;55.00;;;;;;5075235;28;1644;-69
2022/01/18 11:13:51;;;;;;;;;;;21.00;55.10;;;;;;5075516;28;1398;-69
2022/01/18 11:16:25;;;;;;;;;;;20.90;55.20;;;;;;5075547;28;1360;-69
2022/01/18 11:18:51;;;;;;;;;;;20.90;55.20;;;;;;5074189;28;1580;-70
2022/01/18 11:21:19;;;;;;;;;;;20.90;55.40;;;;;;5074070;28;1391;-69
2022/01/18 11:23:44;;;;;;;;;;;20.90;55.50;;;;;;5074097;28;1690;-70
2022/01/18 11:26:10;;;;;;;;;;;20.80;55.50;;;;;;5075114;28;1902;-70
2022/01/18 11:28:37;;;;;;;;;;;20.80;55.50;;;;;;5074868;28;1706;-71
2022/01/18 11:31:02;;;;;;;;;;;20.80;55.60;;;;;;5075147;28;1647;-70
2022/01/18 11:33:28;;;;;;;;;;;20.80;55.70;;;;;;5074031;28;1658;-70
2022/01/18 11:35:54;;;;;;;;;;;20.80;55.70;;;;;;5075103;28;1613;-70
2022/01/18 11:38:21;;;;;;;;;;;20.70;56.30;;;;;;5074829;28;1496;-70
2022/01/18 11:40:47;;;;;;;;;;;20.70;55.70;;;;;;5069154;28;1381;-70
2022/01/18 11:43:13;;;;;;;;;;;20.70;55.80;;;;;;5068531;28;1320;-70
2022/01/18 11:45:39;;;;;;;;;;;20.70;55.80;;;;;;5073912;28;1957;-71
2022/01/18 11:48:11;;;;;;;;;;;20.70;55.90;;;;;;5074661;28;1611;-69
2022/01/18 11:50:42;;;;;;;;;;;20.70;55.90;;;;;;5075167;28;1145;-71
2022/01/18 11:53:22;;;;;;;;;;;20.70;55.90;;;;;;5074724;28;1435;-69
2022/01/18 11:55:48;;;;;;;;;;;20.70;56.00;;;;;;5075497;28;1558;-69
2022/01/18 11:58:13;;;;;;;;;;;20.60;56.00;;;;;;5075806;28;1379;-70
2022/01/18 12:00:46;;;;;;;;;;;20.60;56.10;;;;;;5074275;28;1698;-70
2022/01/18 12:03:15;;;;;;;;;;;20.60;56.10;;;;;;5075267;28;1665;-69
2022/01/18 12:05:43;;;;;;;;;;;20.60;56.20;;;;;;5073587;28;1910;-70
2022/01/18 12:08:09;;;;;;;;;;;20.60;56.10;;;;;;5074756;28;1632;-68
2022/01/18 12:10:38;;;;;;;;;;;20.60;56.20;;;;;;5073853;28;1566;-71
2022/01/18 12:13:10;;;;;;;;;;;20.60;56.40;;;;;;5074510;28;1608;-68
2022/01/18 12:15:36;;;;;;;;;;;20.50;56.40;;;;;;5073710;28;1453;-72
2022/01/18 12:18:17;;;;;;;;;;;20.50;56.40;;;;;;5074438;28;1661;-69
2022/01/18 12:20:47;;;;;;;;;;;20.50;56.50;;;;;;5073357;28;1400;-69
2022/01/18 12:23:25;;;;;;;;;;;20.50;56.50;;;;;;5072945;28;1357;-69
2022/01/18 12:26:03;;;;;;;;;;;20.40;56.60;;;;;;5075017;28;1890;-68
2022/01/18 12:31:51;;;;;;;;;;;20.40;56.60;;;;;;5074064;28;1351;-68
2022/01/18 12:34:23;;;;;;;;;;;20.40;56.60;;;;;;5072879;28;1728;-69
2022/01/18 12:36:48;;;;;;;;;;;20.40;57.00;;;;;;5073890;28;1291;-70
2022/01/18 12:39:13;;;;;;;;;;;20.40;57.00;;;;;;5072065;28;1381;-70
2022/01/18 12:41:47;;;;;;;;;;;20.50;57.00;;;;;;5074485;28;1380;-71
2022/01/18 12:44:21;;;;;;;;;;;20.50;56.80;;;;;;5073134;28;1616;-68
2022/01/18 12:46:57;;;;;;;;;;;20.60;56.70;;;;;;5074044;28;1400;-70
2022/01/18 12:49:22;;;;;;;;;;;20.60;56.50;;;;;;5074665;28;1422;-70
2022/01/18 12:51:54;;;;;;;;;;;20.70;56.40;;;;;;5071546;28;1948;-70
2022/01/18 12:54:19;;;;;;;;;;;20.80;56.20;;;;;;5064984;28;1377;-70
2022/01/18 12:56:45;;;;;;;;;;;20.90;56.10;;;;;;5071062;28;1402;-69
2022/01/18 12:59:10;;;;;;;;;;;21.00;55.80;;;;;;5070516;28;1578;-71
2022/01/18 13:01:37;;;;;;;;;;;21.10;55.60;;;;;;5073408;28;1408;-71
2022/01/18 13:04:06;;;;;;;;;;;21.20;55.50;;;;;;5073509;28;1654;-70
2022/01/18 13:06:32;;;;;;;;;;;21.20;55.20;;;;;;5073441;28;1893;-70
2022/01/18 13:08:58;;;;;;;;;;;21.30;55.10;;;;;;5073086;28;1642;-71
2022/01/18 13:11:24;;;;;;;;;;;21.40;54.90;;;;;;5073313;28;1387;-70
2022/01/18 13:13:56;;;;;;;;;;;21.40;54.80;;;;;;5071865;28;1384;-71
2022/01/18 13:25:15;;;;;;;;;;;21.50;54.50;;;;;;5073321;28;1456;-70
2022/01/18 13:27:23;;;;;;;;;;;21.50;54.50;;;;;;5067792;28;1661;-69
2022/01/18 13:29:51;;;;;;;;;;;21.50;54.50;;;;;;5059456;28;1399;-71
2022/01/18 13:32:19;;;;;;;;;;;21.60;54.60;;;;;;5071206;28;1646;-71
2022/01/18 13:34:45;;;;;;;;;;;21.60;54.60;;;;;;5071835;28;1618;-71
2022/01/18 13:37:12;;;;;;;;;;;21.60;54.60;;;;;;5071418;28;1522;-71
2022/01/18 13:39:45;;;;;;;;;;;21.60;54.70;;;;;;5072851;28;1356;-72
2022/01/18 13:42:11;;;;;;;;;;;21.60;54.70;;;;;;5071653;28;1398;-71
2022/01/18 13:44:37;;;;;;;;;;;21.50;54.80;;;;;;5072985;28;1980;-70
2022/01/18 13:47:12;;;;;;;;;;;21.50;54.90;;;;;;5071532;28;1686;-69
2022/01/18 13:49:37;;;;;;;;;;;21.50;55.30;;;;;;5072982;28;1712;-70
2022/01/18 13:52:12;;;;;;;;;;;21.50;55.30;;;;;;5072573;28;1557;-69
2022/01/18 13:54:41;;;;;;;;;;;21.50;55.30;;;;;;5071802;28;1607;-70
2022/01/18 13:57:07;;;;;;;;;;;21.50;55.30;;;;;;5072701;28;1566;-70
2022/01/18 13:59:32;;;;;;;;;;;21.50;55.40;;;;;;5071459;28;1636;-70
2022/01/18 14:02:07;;;;;;;;;;;21.50;55.40;;;;;;5072816;28;1380;-70
2022/01/18 14:04:33;;;;;;;;;;;21.40;55.60;;;;;;5071588;28;1906;-70
2022/01/18 14:06:58;;;;;;;;;;;21.50;55.70;;;;;;5075603;28;1188;-70
2022/01/18 14:09:24;;;;;;;;;;;21.50;55.70;;;;;;5075331;28;1622;-70
2022/01/18 14:11:50;;;;;;;;;;;21.40;55.70;;;;;;5076767;28;1567;-69
2022/01/18 14:14:16;;;;;;;;;;;21.40;55.70;;;;;;5076768;28;1456;-69
2022/01/18 14:16:47;;;;;;;;;;;21.40;55.70;;;;;;5075514;28;1810;-69
2022/01/18 14:19:13;;;;;;;;;;;21.40;55.80;;;;;;5075130;28;1637;-69
2022/01/18 14:21:39;;;;;;;;;;;21.40;55.80;;;;;;5076554;28;1653;-69
2022/01/18 14:24:05;;;;;;;;;;;21.40;55.80;;;;;;5076552;28;1462;-67
2022/01/18 14:26:30;;;;;;;;;;;21.40;55.80;;;;;;5055320;28;1948;-67
2022/01/18 14:29:00;;;;;;;;;;;21.30;55.80;;;;;;5073753;28;1576;-67
2022/01/18 14:31:25;;;;;;;;;;;21.30;55.90;;;;;;5076612;28;1578;-67
2022/01/18 14:33:51;;;;;;;;;;;21.30;55.90;;;;;;5076341;28;1724;-67
2022/01/18 14:36:16;;;;;;;;;;;21.30;55.90;;;;;;5075356;28;1604;-71
2022/01/18 14:38:41;;;;;;;;;;;21.30;55.90;;;;;;5076115;28;1246;-69
2022/01/18 14:41:16;;;;;;;;;;;21.30;56.00;;;;;;5076179;28;1083;-70
2022/01/18 14:43:42;;;;;;;;;;;21.30;56.00;;;;;;5074789;28;1318;-71
2022/01/18 14:46:22;;;;;;;;;;;21.30;56.10;;;;;;5074823;28;1906;-70
2022/01/18 14:48:48;;;;;;;;;;;21.30;56.10;;;;;;5075940;28;1647;-69
2022/01/18 14:51:13;;;;;;;;;;;21.30;56.10;;;;;;5075843;28;1700;-69
2022/01/18 14:53:39;;;;;;;;;;;21.30;56.10;;;;;;5076272;28;1661;-69
2022/01/18 14:56:06;;;;;;;;;;;21.30;56.20;;;;;;5076373;28;1688;-69
2022/01/18 14:58:31;;;;;;;;;;;21.20;56.00;;;;;;5076510;28;1405;-70
2022/01/18 15:00:58;;;;;;;;;;;21.30;56.10;;;;;;5074445;28;1673;-68
2022/01/18 15:03:24;;;;;;;;;;;21.30;56.10;;;;;;5075850;28;1418;-71
2022/01/18 15:05:49;;;;;;;;;;;21.30;56.10;;;;;;5074565;28;1906;-70
2022/01/18 15:08:15;;;;;;;;;;;21.30;56.10;;;;;;5075525;28;1226;-70
2022/01/18 15:10:40;;;;;;;;;;;21.30;56.10;;;;;;5074490;28;1576;-71
2022/01/18 15:13:06;;;;;;;;;;;21.30;56.20;;;;;;5075455;28;1404;-70
2022/01/18 15:15:31;;;;;;;;;;;21.30;56.20;;;;;;5075657;28;1581;-68
2022/01/18 15:17:57;;;;;;;;;;;21.20;56.10;;;;;;5065056;28;2549;-69
2022/01/18 15:20:22;;;;;;;;;;;21.20;56.20;;;;;;5070114;28;1614;-69
2022/01/18 15:22:48;;;;;;;;;;;21.20;56.20;;;;;;5064852;28;1527;-69
2022/01/18 15:25:13;;;;;;;;;;;21.20;56.10;;;;;;5074158;28;1902;-69
2022/01/18 15:27:39;;;;;;;;;;;21.20;56.20;;;;;;5074934;28;956;-69
2022/01/18 15:30:08;;;;;;;;;;;21.20;56.20;;;;;;5075167;28;1355;-68
2022/01/18 15:32:33;;;;;;;;;;;21.20;56.30;;;;;;5075052;28;1265;-69
2022/01/18 15:34:59;;;;;;;;;;;21.20;56.20;;;;;;5075190;28;1409;-69
2022/01/18 15:37:24;;;;;;;;;;;21.20;56.20;;;;;;5073761;28;1695;-69
2022/01/18 15:39:51;;;;;;;;;;;21.20;56.30;;;;;;5074858;28;1426;-69
2022/01/18 15:42:17;;;;;;;;;;;21.20;56.30;;;;;;5074831;28;1355;-69
2022/01/18 15:44:42;;;;;;;;;;;21.20;56.30;;;;;;5074878;28;1906;-69
2022/01/18 15:47:09;;;;;;;;;;;21.20;56.30;;;;;;5073569;28;1064;-68